Time;durP1;ratioP1;P1;durP2;ratioP2;P2;SDS_P1;SDS_P2;PMS_P1;PMS_P2;Temp;Humidity;BMP_temperature;BMP_pressure;BME280_temperature;BME280_humidity;BME280_pressure;Samples;Min_cycle;Max_cycle;Signal;HPM_P1;HPM_P2
2022/07/19 00:01:19;;;;;;;3.40;3.10;;;19.60;49.20;;;;;;610755;234;26657;-70
2022/07/19 00:03:47;;;;;;;2.90;2.70;;;19.60;49.00;;;;;;611185;234;26585;-70
2022/07/19 00:06:14;;;;;;;2.85;2.60;;;19.60;49.00;;;;;;613431;234;26820;-70
2022/07/19 00:08:41;;;;;;;3.45;3.20;;;19.60;49.50;;;;;;613800;234;26624;-70
2022/07/19 00:11:08;;;;;;;2.92;2.72;;;19.50;49.40;;;;;;603451;234;27173;-70
2022/07/19 00:13:36;;;;;;;2.83;2.58;;;19.50;49.50;;;;;;603748;234;26627;-70
2022/07/19 00:16:03;;;;;;;2.97;2.70;;;19.40;49.70;;;;;;602098;234;26649;-69
2022/07/19 00:18:30;;;;;;;3.15;2.85;;;19.40;49.80;;;;;;611512;235;26817;-70
2022/07/19 00:20:57;;;;;;;2.83;2.58;;;19.40;50.00;;;;;;604587;234;26645;-70
2022/07/19 00:23:24;;;;;;;3.20;2.90;;;19.40;49.70;;;;;;608008;235;26669;-70
2022/07/19 00:25:52;;;;;;;3.28;3.00;;;19.40;49.60;;;;;;603976;234;26890;-70
2022/07/19 00:28:19;;;;;;;3.92;2.85;;;19.40;49.90;;;;;;601471;234;26694;-70
2022/07/19 00:30:46;;;;;;;2.83;2.62;;;19.40;49.80;;;;;;608160;235;26853;-70
2022/07/19 00:33:14;;;;;;;2.95;2.67;;;19.40;50.30;;;;;;609739;236;26618;-70
2022/07/19 00:35:40;;;;;;;2.90;2.70;;;19.30;50.20;;;;;;606153;235;26855;-70
2022/07/19 00:38:08;;;;;;;2.97;2.78;;;19.30;50.30;;;;;;609761;234;26574;-70
2022/07/19 00:40:36;;;;;;;3.72;3.42;;;19.30;50.10;;;;;;607940;234;26651;-70
2022/07/19 00:43:03;;;;;;;2.97;2.75;;;19.20;50.20;;;;;;609693;234;26824;-70
2022/07/19 00:45:31;;;;;;;3.10;2.80;;;19.20;50.50;;;;;;612283;234;26554;-70
2022/07/19 00:47:58;;;;;;;3.30;3.00;;;19.20;50.50;;;;;;609022;234;26614;-70
2022/07/19 00:50:25;;;;;;;2.83;2.62;;;19.10;50.40;;;;;;610303;234;26783;-70
2022/07/19 00:53:00;;;;;;;2.47;2.28;;;19.10;50.00;;;;;;612812;234;26651;-70
2022/07/19 00:55:25;;;;;;;2.83;2.60;;;19.10;50.40;;;;;;606998;235;26662;-70
2022/07/19 00:57:52;;;;;;;2.92;2.65;;;19.10;50.40;;;;;;602058;234;26603;-70
2022/07/19 01:00:20;;;;;;;3.08;2.87;;;19.10;50.40;;;;;;604206;234;26663;-70
2022/07/19 01:02:47;;;;;;;4.53;2.50;;;19.10;50.40;;;;;;607298;234;26620;-70
2022/07/19 01:05:15;;;;;;;2.70;2.50;;;19.10;50.10;;;;;;603537;234;26591;-70
2022/07/19 01:07:43;;;;;;;2.42;2.22;;;19.00;49.70;;;;;;601756;238;26607;-70
2022/07/19 01:10:11;;;;;;;3.30;3.00;;;19.00;50.50;;;;;;608982;234;26623;-70
2022/07/19 01:12:38;;;;;;;3.55;3.08;;;19.00;50.30;;;;;;610814;234;27375;-70
2022/07/19 01:15:16;;;;;;;3.70;2.97;;;19.00;50.10;;;;;;603440;234;26598;-70
2022/07/19 01:17:44;;;;;;;3.72;3.15;;;19.10;50.00;;;;;;602073;234;26632;-70
2022/07/19 01:20:11;;;;;;;4.25;2.47;;;19.00;49.90;;;;;;601502;234;26651;-70
2022/07/19 01:22:38;;;;;;;2.95;2.75;;;19.00;49.90;;;;;;606842;234;26607;-70
2022/07/19 01:25:07;;;;;;;2.67;2.22;;;19.00;50.10;;;;;;601636;234;26884;-70
2022/07/19 01:27:40;;;;;;;3.62;2.42;;;19.00;50.30;;;;;;603364;234;26850;-70
2022/07/19 01:30:12;;;;;;;2.78;2.58;;;18.90;49.80;;;;;;606656;234;26654;-70
2022/07/19 01:32:40;;;;;;;4.35;2.83;;;18.90;50.20;;;;;;604868;234;26659;-70
2022/07/19 01:35:08;;;;;;;3.75;2.90;;;18.90;50.10;;;;;;609829;232;26862;-69
2022/07/19 01:37:35;;;;;;;3.15;2.78;;;18.90;50.60;;;;;;606008;234;26606;-69
2022/07/19 01:40:02;;;;;;;4.07;2.65;;;18.80;50.60;;;;;;608602;234;26640;-71
2022/07/19 01:42:30;;;;;;;2.95;2.40;;;18.80;50.10;;;;;;607099;234;26650;-67
2022/07/19 01:44:57;;;;;;;3.37;2.70;;;18.70;50.00;;;;;;610957;234;26656;-67
2022/07/19 01:47:25;;;;;;;3.55;2.83;;;18.80;50.40;;;;;;612123;234;26628;-67
2022/07/19 01:49:52;;;;;;;6.72;2.50;;;18.70;50.70;;;;;;612081;234;26859;-67
2022/07/19 01:52:19;;;;;;;2.72;2.53;;;18.70;50.20;;;;;;610959;234;26611;-67
2022/07/19 01:54:47;;;;;;;2.47;2.28;;;18.70;50.50;;;;;;610978;234;26854;-67
2022/07/19 01:57:15;;;;;;;3.10;2.50;;;18.70;50.10;;;;;;611097;234;26587;-67
2022/07/19 01:59:42;;;;;;;2.72;2.50;;;18.60;50.40;;;;;;604499;234;26691;-67
2022/07/19 02:02:10;;;;;;;3.20;3.00;;;18.60;50.40;;;;;;610371;234;26615;-67
2022/07/19 02:04:37;;;;;;;2.75;2.55;;;18.60;50.40;;;;;;606642;234;26610;-67
2022/07/19 02:07:04;;;;;;;5.43;2.83;;;18.60;50.40;;;;;;602126;234;26605;-67
2022/07/19 02:09:32;;;;;;;2.97;2.78;;;18.60;50.60;;;;;;604304;234;26823;-68
2022/07/19 02:11:59;;;;;;;2.30;2.10;;;18.60;50.80;;;;;;610136;236;26629;-68
2022/07/19 02:14:26;;;;;;;3.78;2.78;;;18.60;50.90;;;;;;609296;234;27289;-68
2022/07/19 02:16:53;;;;;;;2.80;2.60;;;18.50;50.80;;;;;;603728;235;26606;-68
2022/07/19 02:19:21;;;;;;;2.67;2.47;;;18.50;50.60;;;;;;603218;234;26616;-68
2022/07/19 02:21:49;;;;;;;2.90;2.70;;;18.50;50.60;;;;;;614106;234;26597;-67
2022/07/19 02:24:16;;;;;;;2.92;2.58;;;18.50;50.60;;;;;;612811;234;26603;-68
2022/07/19 02:26:44;;;;;;;2.60;2.40;;;18.50;50.70;;;;;;607796;234;26607;-68
2022/07/19 02:29:11;;;;;;;2.87;2.58;;;18.40;50.70;;;;;;605440;234;26863;-67
2022/07/19 02:31:38;;;;;;;3.08;2.85;;;18.40;50.70;;;;;;608673;233;26604;-68
2022/07/19 02:34:05;;;;;;;2.40;2.30;;;18.40;50.50;;;;;;608924;234;26917;-68
2022/07/19 02:36:32;;;;;;;2.90;2.60;;;18.40;50.50;;;;;;613946;234;26619;-68
2022/07/19 02:39:00;;;;;;;3.30;2.40;;;18.40;50.70;;;;;;612636;234;27696;-68
2022/07/19 02:41:27;;;;;;;3.08;2.45;;;18.30;50.60;;;;;;604506;234;26635;-68
2022/07/19 02:43:54;;;;;;;2.58;2.37;;;18.30;50.70;;;;;;610110;234;26914;-69
2022/07/19 02:46:21;;;;;;;2.72;2.53;;;18.30;51.20;;;;;;601469;238;26654;-68
2022/07/19 02:48:48;;;;;;;2.97;2.70;;;18.20;51.30;;;;;;612782;234;27214;-67
2022/07/19 02:51:16;;;;;;;2.70;2.50;;;18.20;51.40;;;;;;609914;236;26637;-68
2022/07/19 02:53:43;;;;;;;2.80;2.55;;;18.20;51.50;;;;;;609862;234;26643;-68
2022/07/19 02:56:11;;;;;;;2.58;2.37;;;18.10;51.60;;;;;;602213;234;26614;-68
2022/07/19 02:58:39;;;;;;;2.50;2.30;;;18.10;51.70;;;;;;601925;234;26646;-68
2022/07/19 03:01:07;;;;;;;2.75;2.20;;;18.10;51.50;;;;;;611683;234;26644;-68
2022/07/19 03:06:08;;;;;;;2.33;2.22;;;18.10;51.40;;;;;;615187;234;26756;-68
2022/07/19 03:08:35;;;;;;;3.05;2.85;;;18.10;51.70;;;;;;614904;234;26826;-68
2022/07/19 03:11:03;;;;;;;2.37;2.17;;;18.00;52.00;;;;;;611006;234;26584;-68
2022/07/19 03:13:31;;;;;;;2.78;2.37;;;18.00;52.00;;;;;;602148;234;26848;-68
2022/07/19 03:15:58;;;;;;;2.62;2.42;;;18.00;52.10;;;;;;602833;234;26590;-68
2022/07/19 03:18:26;;;;;;;2.45;2.25;;;18.00;52.60;;;;;;602272;234;26594;-68
2022/07/19 03:20:55;;;;;;;2.87;2.65;;;18.00;52.70;;;;;;605126;234;26580;-68
2022/07/19 03:23:22;;;;;;;2.53;2.33;;;18.00;52.90;;;;;;604567;230;26638;-68
2022/07/19 03:25:49;;;;;;;2.30;2.10;;;17.90;52.80;;;;;;607065;235;26645;-68
2022/07/19 03:28:16;;;;;;;2.25;2.08;;;18.00;53.10;;;;;;608925;230;26611;-68
2022/07/19 03:30:44;;;;;;;3.20;2.62;;;17.90;53.10;;;;;;608868;231;26893;-68
2022/07/19 03:33:15;;;;;;;2.78;2.50;;;17.90;53.20;;;;;;606242;234;26685;-68
2022/07/19 03:35:39;;;;;;;2.60;2.40;;;18.00;53.50;;;;;;601835;234;26846;-68
2022/07/19 03:38:06;;;;;;;2.95;2.58;;;17.90;53.50;;;;;;602349;234;26599;-68
2022/07/19 03:40:33;;;;;;;4.00;2.35;;;17.90;53.50;;;;;;601534;234;26872;-68
2022/07/19 03:43:00;;;;;;;2.55;2.33;;;18.00;53.00;;;;;;608686;234;26604;-68
2022/07/19 03:45:28;;;;;;;2.85;2.58;;;18.00;53.10;;;;;;608360;234;26861;-68
2022/07/19 03:47:55;;;;;;;2.53;2.33;;;18.00;52.90;;;;;;605841;234;26667;-67
2022/07/19 03:50:22;;;;;;;2.58;2.37;;;18.00;53.20;;;;;;611533;234;27150;-67
2022/07/19 03:52:49;;;;;;;2.20;2.10;;;18.10;53.40;;;;;;607791;234;26602;-67
2022/07/19 03:55:16;;;;;;;3.05;2.53;;;18.10;53.20;;;;;;603537;235;26653;-67
2022/07/19 03:57:44;;;;;;;2.65;2.45;;;18.20;52.90;;;;;;601456;238;26651;-68
2022/07/19 04:00:13;;;;;;;2.70;2.50;;;18.20;53.30;;;;;;607206;236;26587;-68
2022/07/19 04:02:40;;;;;;;2.10;2.00;;;18.10;53.20;;;;;;612311;234;26580;-68
2022/07/19 04:05:07;;;;;;;2.47;2.10;;;18.20;53.30;;;;;;609443;234;26617;-68
2022/07/19 04:07:35;;;;;;;2.85;2.28;;;18.20;52.70;;;;;;601327;234;26617;-67
2022/07/19 04:10:02;;;;;;;2.95;2.72;;;18.30;52.90;;;;;;604620;234;26849;-67
2022/07/19 04:12:29;;;;;;;2.62;2.42;;;18.30;53.10;;;;;;610976;234;26639;-67
2022/07/19 04:14:57;;;;;;;3.20;2.90;;;18.40;52.70;;;;;;608815;233;26910;-67
2022/07/19 04:17:24;;;;;;;2.60;2.37;;;18.40;52.70;;;;;;606068;234;26635;-66
2022/07/19 04:19:52;;;;;;;2.80;2.60;;;18.50;53.50;;;;;;614079;230;26587;-67
2022/07/19 04:22:23;;;;;;;2.22;2.12;;;18.50;52.90;;;;;;613971;234;26605;-67
2022/07/19 04:24:47;;;;;;;2.85;2.40;;;18.50;52.90;;;;;;607386;234;26649;-67
2022/07/19 04:27:15;;;;;;;4.07;3.00;;;18.60;52.60;;;;;;607322;234;26582;-67
2022/07/19 04:29:42;;;;;;;3.25;2.78;;;18.70;52.50;;;;;;613156;234;26963;-67
2022/07/19 04:32:09;;;;;;;3.92;2.87;;;18.80;52.60;;;;;;611417;234;26831;-67
2022/07/19 04:34:36;;;;;;;2.85;2.40;;;18.80;51.90;;;;;;614079;234;26793;-67
2022/07/19 04:37:03;;;;;;;2.37;2.15;;;18.90;52.00;;;;;;606123;234;26651;-67
2022/07/19 04:39:31;;;;;;;2.35;2.15;;;19.10;51.80;;;;;;609603;234;27375;-67
2022/07/19 04:41:58;;;;;;;4.75;2.72;;;19.10;51.30;;;;;;611157;234;26662;-67
2022/07/19 04:44:25;;;;;;;3.10;2.80;;;19.20;51.50;;;;;;614059;234;26848;-67
2022/07/19 04:46:52;;;;;;;2.87;2.67;;;19.30;52.50;;;;;;614160;234;26592;-67
2022/07/19 04:49:19;;;;;;;2.62;2.40;;;19.40;51.40;;;;;;606923;234;26707;-67
2022/07/19 04:51:47;;;;;;;3.08;2.47;;;19.50;52.30;;;;;;601526;234;26658;-67
2022/07/19 04:54:15;;;;;;;5.28;2.53;;;19.50;51.50;;;;;;604247;234;26659;-67
2022/07/19 04:56:43;;;;;;;3.10;2.65;;;19.60;51.60;;;;;;609204;235;26598;-67
2022/07/19 04:59:11;;;;;;;3.45;2.50;;;19.70;51.40;;;;;;607636;234;26611;-67
2022/07/19 05:01:39;;;;;;;2.45;2.28;;;19.60;51.00;;;;;;605066;235;26999;-67
2022/07/19 05:04:06;;;;;;;3.83;2.80;;;19.70;51.60;;;;;;607587;234;26580;-67
2022/07/19 05:06:33;;;;;;;3.60;2.20;;;19.80;51.80;;;;;;605866;235;26870;-66
2022/07/19 05:09:00;;;;;;;2.80;2.60;;;19.90;51.70;;;;;;609287;234;26589;-66
2022/07/19 05:11:27;;;;;;;2.35;2.20;;;20.00;50.40;;;;;;609680;236;26880;-66
2022/07/19 05:13:54;;;;;;;2.50;2.30;;;20.10;51.20;;;;;;604446;235;26688;-66
2022/07/19 05:16:23;;;;;;;4.30;2.83;;;20.20;50.80;;;;;;610501;235;26825;-66
2022/07/19 05:18:50;;;;;;;3.30;2.75;;;20.30;50.90;;;;;;605690;234;26628;-67
2022/07/19 05:21:17;;;;;;;4.20;2.83;;;20.40;49.60;;;;;;602752;234;26955;-68
2022/07/19 05:23:44;;;;;;;2.97;2.78;;;20.50;50.20;;;;;;608021;234;26632;-67
2022/07/19 05:26:11;;;;;;;2.53;2.33;;;20.60;49.80;;;;;;607536;233;26843;-67
2022/07/19 05:28:39;;;;;;;2.85;2.35;;;20.70;49.70;;;;;;612066;234;26630;-67
2022/07/19 05:31:06;;;;;;;2.92;2.67;;;20.80;49.30;;;;;;607523;234;26859;-67
2022/07/19 05:33:33;;;;;;;5.07;2.62;;;20.90;49.70;;;;;;608079;235;26809;-67
2022/07/19 05:36:00;;;;;;;4.45;2.90;;;21.00;49.70;;;;;;605134;234;26868;-67
2022/07/19 05:38:29;;;;;;;3.05;2.75;;;21.10;48.80;;;;;;604059;234;26574;-67
2022/07/19 05:40:54;;;;;;;3.62;2.60;;;21.20;49.50;;;;;;603266;234;26853;-67
2022/07/19 05:43:22;;;;;;;2.97;2.78;;;21.40;48.30;;;;;;605518;234;26626;-67
2022/07/19 05:45:50;;;;;;;3.85;3.12;;;21.50;48.90;;;;;;607847;234;26628;-67
2022/07/19 05:48:18;;;;;;;3.60;3.08;;;21.60;48.70;;;;;;606812;234;26655;-67
2022/07/19 05:50:46;;;;;;;3.28;2.95;;;21.70;48.20;;;;;;602773;234;26664;-67
2022/07/19 05:53:17;;;;;;;3.85;3.37;;;21.70;48.20;;;;;;607289;235;26671;-66
2022/07/19 05:55:41;;;;;;;3.70;2.80;;;21.80;47.60;;;;;;604500;234;26622;-67
2022/07/19 05:58:08;;;;;;;4.62;3.55;;;21.90;46.90;;;;;;610487;234;26630;-67
2022/07/19 06:00:36;;;;;;;3.83;3.25;;;22.10;46.60;;;;;;613695;234;26578;-66
2022/07/19 06:03:03;;;;;;;5.53;3.03;;;22.20;46.30;;;;;;606838;234;26647;-67
2022/07/19 06:05:30;;;;;;;4.18;2.85;;;22.30;46.70;;;;;;613569;234;26635;-69
2022/07/19 06:07:57;;;;;;;2.80;2.60;;;22.40;46.20;;;;;;605296;234;27321;-65
2022/07/19 06:10:24;;;;;;;3.58;3.28;;;22.60;45.50;;;;;;612845;234;26583;-70
2022/07/19 06:12:52;;;;;;;2.80;2.60;;;22.90;45.60;;;;;;606845;230;26603;-70
2022/07/19 06:15:19;;;;;;;2.67;2.47;;;22.90;45.70;;;;;;605570;234;26625;-67
2022/07/19 06:17:47;;;;;;;3.37;2.50;;;23.10;45.20;;;;;;605971;234;26663;-67
2022/07/19 06:20:15;;;;;;;3.10;2.80;;;23.20;44.60;;;;;;611450;234;26636;-67
2022/07/19 06:22:43;;;;;;;3.10;2.80;;;23.30;44.00;;;;;;608599;230;26703;-70
2022/07/19 06:25:11;;;;;;;4.45;3.03;;;23.20;43.90;;;;;;609852;234;26594;-68
2022/07/19 06:27:38;;;;;;;8.02;3.58;;;23.40;44.20;;;;;;610213;234;26662;-67
2022/07/19 06:30:06;;;;;;;7.72;3.58;;;23.60;44.10;;;;;;605863;230;26837;-67
2022/07/19 06:32:33;;;;;;;2.87;2.67;;;23.70;43.70;;;;;;608007;234;26901;-71
2022/07/19 06:35:00;;;;;;;3.35;3.05;;;23.80;43.70;;;;;;608465;234;26619;-67
2022/07/19 06:37:28;;;;;;;2.70;2.50;;;24.00;43.90;;;;;;606367;234;26925;-68
2022/07/19 06:39:56;;;;;;;3.75;2.60;;;24.10;43.00;;;;;;609318;233;26655;-65
2022/07/19 06:42:23;;;;;;;2.40;2.20;;;24.10;42.90;;;;;;606044;234;26676;-67
2022/07/19 06:44:50;;;;;;;3.08;2.00;;;24.20;43.00;;;;;;608121;234;26638;-66
2022/07/19 06:47:18;;;;;;;3.55;2.75;;;24.50;43.00;;;;;;611613;234;26644;-66
2022/07/19 06:49:46;;;;;;;3.50;3.00;;;24.60;42.60;;;;;;606450;234;26602;-66
2022/07/19 06:52:13;;;;;;;4.47;2.97;;;24.60;42.60;;;;;;611515;234;26680;-68
2022/07/19 06:54:40;;;;;;;4.12;2.85;;;24.70;42.70;;;;;;607767;234;26622;-65
2022/07/19 06:57:09;;;;;;;2.90;2.70;;;24.80;42.00;;;;;;610882;234;26579;-65
2022/07/19 06:59:36;;;;;;;5.72;3.92;;;24.80;42.00;;;;;;605257;234;26854;-66
2022/07/19 07:02:04;;;;;;;3.30;3.00;;;25.00;42.10;;;;;;606532;234;26670;-66
2022/07/19 07:04:31;;;;;;;6.53;5.12;;;25.20;42.40;;;;;;604699;234;26895;-68
2022/07/19 07:06:58;;;;;;;4.57;3.72;;;25.30;41.70;;;;;;610045;234;26587;-66
2022/07/19 07:09:25;;;;;;;3.40;2.95;;;25.30;41.70;;;;;;609917;234;26882;-66
2022/07/19 07:11:53;;;;;;;7.45;6.32;;;25.40;41.20;;;;;;609284;230;26683;-67
2022/07/19 07:14:20;;;;;;;8.70;6.47;;;25.50;41.20;;;;;;607822;234;26852;-68
2022/07/19 07:16:47;;;;;;;62.85;15.55;;;25.60;40.40;;;;;;609655;234;26590;-68
2022/07/19 07:19:14;;;;;;;133.75;31.40;;;25.70;40.60;;;;;;610883;234;26858;-69
2022/07/19 07:21:41;;;;;;;136.73;32.83;;;25.80;40.30;;;;;;606571;234;26877;-67
2022/07/19 07:24:09;;;;;;;113.95;30.20;;;26.10;41.10;;;;;;610825;234;26603;-67
2022/07/19 07:26:37;;;;;;;130.57;29.30;;;26.10;41.00;;;;;;602973;234;26646;-68
2022/07/19 07:29:05;;;;;;;122.53;26.67;;;26.30;40.20;;;;;;604961;234;26633;-67
2022/07/19 07:31:33;;;;;;;80.18;19.45;;;26.30;39.70;;;;;;606820;234;26641;-67
2022/07/19 07:34:02;;;;;;;91.35;23.10;;;26.40;39.70;;;;;;605671;234;26645;-68
2022/07/19 07:36:29;;;;;;;110.85;25.58;;;26.50;39.30;;;;;;605269;234;26639;-67
2022/07/19 07:38:56;;;;;;;23.40;7.28;;;26.40;39.20;;;;;;608505;234;26659;-66
2022/07/19 07:41:24;;;;;;;7.90;3.03;;;26.50;38.70;;;;;;605537;234;26840;-66
2022/07/19 07:43:52;;;;;;;74.43;22.92;;;26.70;39.90;;;;;;608986;234;26588;-65
2022/07/19 07:46:19;;;;;;;69.72;18.62;;;26.70;39.90;;;;;;609597;234;26694;-66
2022/07/19 07:48:47;;;;;;;82.10;22.87;;;26.90;38.50;;;;;;612047;234;26906;-66
2022/07/19 07:51:14;;;;;;;66.57;19.48;;;26.90;38.60;;;;;;608304;229;27349;-66
2022/07/19 07:53:41;;;;;;;56.17;16.55;;;26.90;38.80;;;;;;608803;234;26649;-65
2022/07/19 07:56:08;;;;;;;36.88;12.45;;;27.00;38.40;;;;;;602947;235;26872;-65
2022/07/19 07:58:37;;;;;;;16.12;7.32;;;27.10;38.30;;;;;;604773;234;26625;-65
2022/07/19 08:01:03;;;;;;;9.23;5.30;;;27.30;38.20;;;;;;605683;234;26830;-66
2022/07/19 08:03:31;;;;;;;7.68;4.60;;;27.60;38.20;;;;;;604809;234;26882;-65
2022/07/19 08:05:58;;;;;;;10.80;5.62;;;27.50;37.70;;;;;;606529;234;26602;-65
2022/07/19 08:08:26;;;;;;;3.67;2.67;;;27.50;37.40;;;;;;607473;234;26872;-65
2022/07/19 08:10:56;;;;;;;3.75;3.05;;;27.50;38.00;;;;;;606887;234;26621;-65
2022/07/19 08:13:23;;;;;;;3.22;2.60;;;27.60;38.40;;;;;;610157;234;26644;-65
2022/07/19 08:15:50;;;;;;;6.60;3.10;;;27.60;39.30;;;;;;607571;234;26958;-65
2022/07/19 08:18:17;;;;;;;2.40;2.00;;;27.50;39.10;;;;;;610305;234;26589;-65
2022/07/19 08:20:45;;;;;;;2.67;2.47;;;27.60;38.90;;;;;;607947;234;27238;-65
2022/07/19 08:23:12;;;;;;;3.80;2.75;;;27.70;37.90;;;;;;602859;234;26625;-66
2022/07/19 08:25:40;;;;;;;2.42;2.22;;;27.80;38.00;;;;;;608032;234;26676;-66
2022/07/19 08:28:08;;;;;;;7.68;3.87;;;27.80;38.00;;;;;;607237;234;26871;-66
2022/07/19 08:30:36;;;;;;;2.10;2.00;;;27.80;38.60;;;;;;606637;234;26637;-70
2022/07/19 08:33:06;;;;;;;2.80;2.20;;;27.80;38.20;;;;;;611451;234;26642;-70
2022/07/19 08:35:31;;;;;;;3.60;2.47;;;27.90;39.00;;;;;;606016;234;26628;-68
2022/07/19 08:37:58;;;;;;;3.45;2.40;;;27.90;39.00;;;;;;610985;230;26631;-65
2022/07/19 08:40:26;;;;;;;4.12;2.70;;;27.90;38.20;;;;;;607039;234;26853;-66
2022/07/19 08:42:54;;;;;;;12.55;5.53;;;28.10;37.70;;;;;;611359;232;26623;-66
2022/07/19 08:45:22;;;;;;;7.12;4.18;;;28.10;37.90;;;;;;606830;234;26677;-66
2022/07/19 08:47:49;;;;;;;8.48;4.90;;;28.10;37.80;;;;;;611414;234;27304;-66
2022/07/19 08:50:17;;;;;;;6.03;4.10;;;28.10;37.70;;;;;;612392;234;26677;-67
2022/07/19 08:52:44;;;;;;;2.30;1.92;;;28.20;37.10;;;;;;611115;234;27364;-67
2022/07/19 08:55:11;;;;;;;2.58;2.22;;;28.20;37.70;;;;;;603596;234;26640;-68
2022/07/19 09:00:12;;;;;;;3.03;1.90;;;28.30;37.20;;;;;;608390;236;26861;-67
2022/07/19 09:02:40;;;;;;;1.62;1.52;;;28.30;38.30;;;;;;607026;234;26649;-67
2022/07/19 09:05:08;;;;;;;8.07;3.95;;;28.30;37.90;;;;;;607636;234;26663;-67
2022/07/19 09:07:35;;;;;;;1.62;1.52;;;28.40;37.60;;;;;;606869;234;26882;-67
2022/07/19 09:10:14;;;;;;;5.78;4.00;;;28.40;37.80;;;;;;604387;234;26883;-67
2022/07/19 09:12:53;;;;;;;7.15;4.00;;;28.50;37.10;;;;;;604765;235;26670;-68
2022/07/19 09:15:20;;;;;;;8.68;3.75;;;28.50;36.60;;;;;;611961;235;26631;-67
2022/07/19 09:17:47;;;;;;;2.15;1.95;;;28.70;36.30;;;;;;603008;235;26602;-67
2022/07/19 09:20:14;;;;;;;2.03;1.65;;;28.70;37.50;;;;;;613347;234;26872;-67
2022/07/19 09:22:41;;;;;;;5.05;4.10;;;28.70;37.10;;;;;;606386;236;26674;-69
2022/07/19 09:25:09;;;;;;;4.60;3.40;;;28.70;36.40;;;;;;607122;234;26646;-68
2022/07/19 09:27:37;;;;;;;7.97;4.12;;;28.90;36.50;;;;;;613063;234;26584;-68
2022/07/19 09:30:04;;;;;;;8.40;3.45;;;28.80;36.90;;;;;;602600;235;26850;-68
2022/07/19 09:32:32;;;;;;;6.57;3.75;;;28.90;35.90;;;;;;605776;234;27320;-68
2022/07/19 09:35:02;;;;;;;7.78;3.83;;;28.90;36.00;;;;;;609641;234;26646;-69
2022/07/19 09:37:29;;;;;;;7.05;3.70;;;29.00;35.80;;;;;;604232;235;26890;-68
2022/07/19 09:39:58;;;;;;;7.43;2.97;;;29.10;36.30;;;;;;601757;234;26661;-69
2022/07/19 09:42:37;;;;;;;4.95;3.67;;;29.10;35.50;;;;;;607735;235;26640;-69
2022/07/19 09:45:04;;;;;;;2.80;2.40;;;29.10;35.10;;;;;;607682;234;26871;-67
2022/07/19 09:47:31;;;;;;;2.87;2.47;;;29.10;35.00;;;;;;610564;234;26659;-67
2022/07/19 09:49:59;;;;;;;6.12;3.22;;;29.30;34.80;;;;;;613148;234;26630;-67
2022/07/19 09:52:27;;;;;;;6.37;3.20;;;29.30;35.20;;;;;;610255;234;26623;-67
2022/07/19 09:54:57;;;;;;;7.35;3.40;;;29.40;35.40;;;;;;602478;234;26662;-67
2022/07/19 09:57:24;;;;;;;3.75;2.67;;;29.40;35.20;;;;;;605939;234;26869;-69
2022/07/19 09:59:54;;;;;;;1.62;1.40;;;29.40;34.60;;;;;;610695;234;26648;-68
2022/07/19 10:02:20;;;;;;;4.20;2.55;;;29.60;35.00;;;;;;611579;234;26599;-68
2022/07/19 10:04:48;;;;;;;4.25;2.53;;;29.50;34.90;;;;;;611699;234;26650;-67
2022/07/19 10:07:15;;;;;;;3.40;2.25;;;29.60;35.30;;;;;;613835;234;26813;-66
2022/07/19 10:09:42;;;;;;;1.30;1.12;;;29.60;34.50;;;;;;613839;234;26622;-67
2022/07/19 10:12:11;;;;;;;7.57;2.85;;;29.60;34.50;;;;;;610678;232;26622;-72
2022/07/19 10:14:39;;;;;;;3.67;2.20;;;29.70;34.00;;;;;;611260;233;26642;-68
2022/07/19 10:17:23;;;;;;;2.92;2.25;;;29.90;33.40;;;;;;610018;235;26644;-69
2022/07/19 10:19:50;;;;;;;3.33;2.37;;;29.90;33.40;;;;;;603413;235;26687;-68
2022/07/19 10:22:18;;;;;;;3.65;2.67;;;30.00;33.30;;;;;;604409;234;26651;-69
2022/07/19 10:24:49;;;;;;;3.03;2.65;;;30.10;33.20;;;;;;612045;234;27334;-69
2022/07/19 10:27:19;;;;;;;4.10;2.30;;;30.20;33.70;;;;;;607673;234;26840;-69
2022/07/19 10:29:47;;;;;;;1.73;1.62;;;30.20;32.60;;;;;;608256;235;26595;-69
2022/07/19 10:32:15;;;;;;;1.40;1.30;;;30.20;32.60;;;;;;612341;234;26603;-70
2022/07/19 10:34:43;;;;;;;1.50;1.40;;;30.30;32.80;;;;;;613700;229;26898;-70
2022/07/19 10:37:10;;;;;;;1.80;1.45;;;30.30;33.40;;;;;;607111;234;26610;-70
2022/07/19 10:39:38;;;;;;;2.05;1.58;;;30.30;33.50;;;;;;601737;239;26594;-70
2022/07/19 10:42:08;;;;;;;3.25;2.37;;;30.50;32.10;;;;;;602747;234;26630;-70
2022/07/19 10:44:35;;;;;;;2.45;1.87;;;30.50;32.10;;;;;;610667;234;26908;-70
2022/07/19 10:47:02;;;;;;;1.60;1.50;;;30.50;31.50;;;;;;600265;234;26595;-70
2022/07/19 10:49:42;;;;;;;1.17;1.17;;;30.50;31.60;;;;;;609944;234;26631;-70
2022/07/19 10:52:20;;;;;;;1.40;1.30;;;30.60;31.70;;;;;;602679;234;26727;-71
2022/07/19 10:54:47;;;;;;;1.08;1.08;;;30.70;31.10;;;;;;610219;234;27349;-69
2022/07/19 10:57:14;;;;;;;1.65;1.25;;;30.70;31.60;;;;;;613858;234;26629;-69
2022/07/19 10:59:42;;;;;;;1.15;1.15;;;30.70;32.20;;;;;;602607;234;26948;-70
2022/07/19 11:02:13;;;;;;;3.30;2.40;;;30.80;32.20;;;;;;608271;234;26685;-69
2022/07/19 11:04:37;;;;;;;2.83;2.60;;;30.90;31.50;;;;;;605530;236;26875;-69
2022/07/19 11:07:10;;;;;;;2.33;1.80;;;31.00;31.20;;;;;;601050;234;26661;-69
2022/07/19 11:09:39;;;;;;;1.17;1.17;;;31.00;30.90;;;;;;609322;235;26694;-69
2022/07/19 11:12:25;;;;;;;2.17;2.03;;;31.20;30.90;;;;;;612268;234;26882;-69
2022/07/19 11:14:53;;;;;;;2.25;2.05;;;31.40;30.30;;;;;;605292;234;26658;-69
2022/07/19 11:17:21;;;;;;;3.22;2.12;;;31.40;30.30;;;;;;605357;234;26640;-69
2022/07/19 11:19:56;;;;;;;1.85;1.65;;;31.50;30.50;;;;;;601495;234;26920;-71
2022/07/19 11:22:24;;;;;;;83.37;17.48;;;31.50;30.10;;;;;;609991;230;26632;-71
2022/07/19 11:24:52;;;;;;;120.50;28.25;;;31.60;29.80;;;;;;608120;231;26605;-70
2022/07/19 11:27:20;;;;;;;163.23;33.28;;;31.70;30.00;;;;;;610348;234;27248;-71
2022/07/19 11:29:53;;;;;;;133.27;28.27;;;31.60;30.00;;;;;;614870;234;26969;-69
2022/07/19 11:32:21;;;;;;;102.05;24.65;;;31.70;28.70;;;;;;612240;234;26867;-70
2022/07/19 11:34:52;;;;;;;84.13;20.25;;;31.80;29.20;;;;;;610028;235;26604;-70
2022/07/19 11:37:24;;;;;;;83.75;17.85;;;31.80;29.50;;;;;;610005;235;26636;-70
2022/07/19 11:39:51;;;;;;;65.90;16.65;;;31.80;29.20;;;;;;609868;236;26876;-70
2022/07/19 11:42:27;;;;;;;68.12;16.67;;;31.90;28.80;;;;;;609924;236;26638;-70
2022/07/19 11:44:54;;;;;;;48.03;12.95;;;32.00;29.80;;;;;;609709;236;26662;-70
2022/07/19 11:47:22;;;;;;;3.37;1.98;;;32.10;29.60;;;;;;609848;235;26673;-70
2022/07/19 11:49:50;;;;;;;16.52;5.72;;;32.10;29.60;;;;;;602520;234;26606;-70
2022/07/19 11:52:17;;;;;;;4.15;2.40;;;32.10;29.50;;;;;;601709;238;26641;-70
2022/07/19 11:54:44;;;;;;;2.72;1.75;;;32.10;30.10;;;;;;601725;239;26609;-70
2022/07/19 11:57:23;;;;;;;1.52;1.42;;;32.10;30.30;;;;;;599767;236;26606;-70
2022/07/19 11:59:49;;;;;;;2.25;1.58;;;32.20;29.40;;;;;;601645;238;26598;-70
2022/07/19 12:02:17;;;;;;;1.30;1.20;;;32.40;28.60;;;;;;601437;239;26921;-70
2022/07/19 12:04:44;;;;;;;1.50;1.40;;;32.50;29.90;;;;;;601462;238;26611;-70
2022/07/19 12:07:11;;;;;;;4.97;1.50;;;32.50;29.00;;;;;;601471;238;26882;-70
2022/07/19 12:09:38;;;;;;;3.30;2.05;;;32.50;29.50;;;;;;601515;235;26617;-70
2022/07/19 12:12:11;;;;;;;2.30;2.10;;;32.50;29.20;;;;;;601423;238;26898;-70
2022/07/19 12:14:40;;;;;;;2.20;1.98;;;32.60;29.20;;;;;;603522;234;26664;-70
2022/07/19 12:17:13;;;;;;;3.67;1.70;;;32.70;28.80;;;;;;613885;234;26601;-70
2022/07/19 12:19:41;;;;;;;4.00;1.42;;;33.00;28.70;;;;;;613640;234;26657;-70
2022/07/19 12:22:21;;;;;;;2.10;1.67;;;32.90;28.60;;;;;;613990;234;26620;-70
2022/07/19 12:24:47;;;;;;;4.65;2.20;;;33.20;28.40;;;;;;613961;234;26628;-70
2022/07/19 12:27:16;;;;;;;3.08;2.45;;;33.60;28.60;;;;;;613892;234;26621;-70
2022/07/19 12:29:44;;;;;;;6.28;2.58;;;33.90;27.70;;;;;;613833;234;26634;-70
2022/07/19 12:32:11;;;;;;;4.05;2.78;;;33.90;27.30;;;;;;613806;234;26665;-70
2022/07/19 12:34:42;;;;;;;3.42;2.47;;;34.20;28.00;;;;;;613803;234;26630;-70
2022/07/19 12:37:21;;;;;;;1.77;1.67;;;34.50;27.50;;;;;;615320;232;26695;-70
2022/07/19 12:40:01;;;;;;;3.22;1.50;;;34.80;27.10;;;;;;614943;234;26592;-70
2022/07/19 12:42:43;;;;;;;4.05;2.53;;;34.80;27.10;;;;;;614066;234;26590;-70
2022/07/19 12:45:16;;;;;;;4.53;2.60;;;35.00;26.70;;;;;;612368;234;26841;-70
2022/07/19 12:47:44;;;;;;;2.28;2.10;;;35.50;27.20;;;;;;614976;234;26539;-70
2022/07/19 12:50:22;;;;;;;3.92;2.67;;;35.50;27.20;;;;;;614879;234;26588;-70
2022/07/19 12:52:50;;;;;;;3.17;2.55;;;35.90;26.30;;;;;;614716;234;26634;-70
2022/07/19 12:55:18;;;;;;;4.35;2.55;;;35.90;26.30;;;;;;602660;234;26604;-70